Impacts METAR Board
IDs:

KDCA - Washington/National, VA, US

Updated at: 0800 UTC 19 Jun 2018
Potential Impact None Slight Moderate High
Time 18/20Z 18/21Z 18/22Z 18/23Z 19/00Z 19/01Z 19/02Z 19/03Z 19/04Z 19/05Z 19/06Z 19/07Z 19/08Z
Temp89 89 90 88 86 85 83 86 84 84 81 80 79
Dewpt74 74 74 75 75 75 75 70 70 70 71 72 73
Altim29.95 29.93 29.91 29.89 29.88 29.88 29.89 29.90 29.89 29.89 29.87 29.85 29.84
VIS10 10 10 10 10 10 10 10 10 10 10 10 10
CIG50 60 250 250 250 250 250 -- 250 250 250 250 --
CoverBKNBKNBKNBKNBKNBKNBKNSCTBKNBKNBKNBKNSCT
FltCatVFRVFRVFRVFRVFRVFRVFRVFRVFRVFRVFRVFRVFR
WX--------------------------
WDir170180200180190190180220230240180180180
WSpd13 10 10 9 8 6 8 8 6 7 7 8 8
WGst-- -- -- -- -- -- -- -- -- -- -- -- --
Raw hourly METARs
KDCA 181952Z 17013KT 10SM BKN050 BKN060 BKN250 32/23 A2995 RMK AO2 SLP143 T03170233
KDCA 182052Z 18010KT 10SM SCT045 BKN060 BKN250 32/23 A2993 RMK AO2 SLP133 T03170233 58025
KDCA 182152Z 20010KT 10SM FEW045 SCT065 SCT090 BKN250 32/23 A2991 RMK AO2 SLP129 T03220233 $
KDCA 182304Z 18009KT 10SM FEW065 FEW090 BKN250 31/24 A2989 RMK AO2 T03110239 $
KDCA 182352Z 19008KT 10SM FEW070 BKN250 30/24 A2988 RMK AO2 SLP118 T03000239 10333 20294 56015 $
KDCA 190052Z 19006KT 10SM FEW075 BKN250 29/24 A2988 RMK AO2 SLP118 T02940239 $
KDCA 190152Z 18008KT 10SM FEW080 BKN250 28/24 A2989 RMK AO2 SLP122 T02830239 $
KDCA 190255Z 22008KT 10SM FEW090 SCT250 30/21 A2990 RMK AO2 T03000211 $
KDCA 190352Z 23006KT 10SM BKN250 29/21 A2989 RMK AO2 SLP123 T02890211 $
KDCA 190452Z 24007KT 10SM BKN250 29/21 A2989 RMK AO2 SLP120 T02890211 403330233 $
KDCA 190552Z 18007KT 10SM BKN250 27/22 A2987 RMK AO2 SLP114 T02720217 10311 20272 58012 $
KDCA 190652Z 18008KT 10SM BKN250 27/22 A2985 RMK AO2 SLP108 T02670222 $
KDCA 190752Z 18008KT 10SM FEW180 SCT250 26/23 A2984 RMK AO2 SLP105 T02610228 $



Page loaded:  08:54 UTC  |   01:54 AM Pacific  |   02:54 AM Mountain  |   03:54 AM Central  |   04:54 AM Eastern

 

ADVISORIES

FORECASTS

FORECASTS

OBSERVATIONS

USER TOOLS

ABOUT US